sensor_id;sensor_type;location;lat;lon;timestamp;P1;durP1;ratioP1;P2;durP2;ratioP2
22476;SDS011;65006;51.698;-0.292;2024-02-15T00:01:46;5.65;;;3.05;;
22476;SDS011;65006;51.698;-0.292;2024-02-15T00:04:12;3.88;;;2.58;;
22476;SDS011;65006;51.698;-0.292;2024-02-15T00:06:38;7.82;;;2.58;;
22476;SDS011;65006;51.698;-0.292;2024-02-15T00:09:04;7.72;;;2.78;;
22476;SDS011;65006;51.698;-0.292;2024-02-15T00:11:30;6.20;;;2.75;;
22476;SDS011;65006;51.698;-0.292;2024-02-15T00:13:57;6.40;;;2.70;;
22476;SDS011;65006;51.698;-0.292;2024-02-15T00:16:23;6.00;;;3.30;;
22476;SDS011;65006;51.698;-0.292;2024-02-15T00:18:49;5.00;;;2.70;;
22476;SDS011;65006;51.698;-0.292;2024-02-15T00:21:15;13.23;;;2.63;;
22476;SDS011;65006;51.698;-0.292;2024-02-15T00:23:41;4.43;;;2.67;;
22476;SDS011;65006;51.698;-0.292;2024-02-15T00:26:07;5.38;;;2.97;;
22476;SDS011;65006;51.698;-0.292;2024-02-15T00:28:37;7.40;;;3.30;;
22476;SDS011;65006;51.698;-0.292;2024-02-15T00:31:03;6.25;;;2.92;;
22476;SDS011;65006;51.698;-0.292;2024-02-15T00:33:29;4.78;;;3.05;;
22476;SDS011;65006;51.698;-0.292;2024-02-15T00:35:55;8.85;;;3.00;;
22476;SDS011;65006;51.698;-0.292;2024-02-15T00:38:20;5.97;;;2.78;;
22476;SDS011;65006;51.698;-0.292;2024-02-15T00:40:48;5.85;;;3.22;;
22476;SDS011;65006;51.698;-0.292;2024-02-15T00:43:14;5.40;;;3.65;;
22476;SDS011;65006;51.698;-0.292;2024-02-15T00:45:40;5.28;;;2.58;;
22476;SDS011;65006;51.698;-0.292;2024-02-15T00:48:06;4.45;;;2.78;;
22476;SDS011;65006;51.698;-0.292;2024-02-15T00:50:32;9.73;;;3.13;;
22476;SDS011;65006;51.698;-0.292;2024-02-15T00:53:00;4.50;;;2.63;;
22476;SDS011;65006;51.698;-0.292;2024-02-15T00:55:26;5.40;;;2.53;;
22476;SDS011;65006;51.698;-0.292;2024-02-15T00:57:52;5.00;;;2.60;;
22476;SDS011;65006;51.698;-0.292;2024-02-15T01:00:18;4.22;;;2.53;;
22476;SDS011;65006;51.698;-0.292;2024-02-15T01:02:44;3.63;;;2.33;;
22476;SDS011;65006;51.698;-0.292;2024-02-15T01:05:11;3.42;;;2.20;;
22476;SDS011;65006;51.698;-0.292;2024-02-15T01:07:40;6.25;;;2.22;;
22476;SDS011;65006;51.698;-0.292;2024-02-15T01:10:06;6.70;;;2.47;;
22476;SDS011;65006;51.698;-0.292;2024-02-15T01:12:32;2.83;;;2.28;;
22476;SDS011;65006;51.698;-0.292;2024-02-15T01:14:58;3.60;;;2.22;;
22476;SDS011;65006;51.698;-0.292;2024-02-15T01:17:24;6.60;;;2.40;;
22476;SDS011;65006;51.698;-0.292;2024-02-15T01:19:50;7.78;;;2.63;;
22476;SDS011;65006;51.698;-0.292;2024-02-15T01:22:18;5.40;;;2.60;;
22476;SDS011;65006;51.698;-0.292;2024-02-15T01:24:45;7.57;;;2.65;;
22476;SDS011;65006;51.698;-0.292;2024-02-15T01:29:36;4.95;;;2.67;;
22476;SDS011;65006;51.698;-0.292;2024-02-15T01:32:02;3.65;;;2.28;;
22476;SDS011;65006;51.698;-0.292;2024-02-15T01:34:30;5.72;;;2.85;;
22476;SDS011;65006;51.698;-0.292;2024-02-15T01:36:56;4.88;;;3.03;;
22476;SDS011;65006;51.698;-0.292;2024-02-15T01:39:22;7.30;;;3.17;;
22476;SDS011;65006;51.698;-0.292;2024-02-15T01:41:48;9.55;;;3.30;;
22476;SDS011;65006;51.698;-0.292;2024-02-15T01:44:16;6.50;;;3.28;;
22476;SDS011;65006;51.698;-0.292;2024-02-15T01:46:43;6.07;;;3.42;;
22476;SDS011;65006;51.698;-0.292;2024-02-15T01:49:11;7.47;;;3.45;;
22476;SDS011;65006;51.698;-0.292;2024-02-15T01:51:37;7.90;;;3.67;;
22476;SDS011;65006;51.698;-0.292;2024-02-15T01:54:03;8.23;;;3.70;;
22476;SDS011;65006;51.698;-0.292;2024-02-15T01:56:30;5.60;;;3.63;;
22476;SDS011;65006;51.698;-0.292;2024-02-15T01:58:57;10.40;;;4.22;;
22476;SDS011;65006;51.698;-0.292;2024-02-15T02:01:23;8.10;;;4.10;;
22476;SDS011;65006;51.698;-0.292;2024-02-15T02:03:49;10.00;;;3.63;;
22476;SDS011;65006;51.698;-0.292;2024-02-15T02:06:15;8.40;;;4.70;;
22476;SDS011;65006;51.698;-0.292;2024-02-15T02:08:42;11.23;;;4.85;;
22476;SDS011;65006;51.698;-0.292;2024-02-15T02:11:07;13.70;;;4.85;;
22476;SDS011;65006;51.698;-0.292;2024-02-15T02:13:34;16.98;;;5.53;;
22476;SDS011;65006;51.698;-0.292;2024-02-15T02:16:00;13.68;;;4.05;;
22476;SDS011;65006;51.698;-0.292;2024-02-15T02:18:26;10.15;;;4.03;;
22476;SDS011;65006;51.698;-0.292;2024-02-15T02:20:52;9.57;;;4.03;;
22476;SDS011;65006;51.698;-0.292;2024-02-15T02:23:19;6.63;;;3.85;;
22476;SDS011;65006;51.698;-0.292;2024-02-15T02:25:47;9.20;;;4.00;;
22476;SDS011;65006;51.698;-0.292;2024-02-15T02:28:14;7.53;;;3.70;;
22476;SDS011;65006;51.698;-0.292;2024-02-15T02:30:43;7.38;;;3.60;;
22476;SDS011;65006;51.698;-0.292;2024-02-15T02:35:36;6.47;;;2.67;;
22476;SDS011;65006;51.698;-0.292;2024-02-15T02:38:02;5.90;;;3.50;;
22476;SDS011;65006;51.698;-0.292;2024-02-15T02:40:28;7.53;;;2.80;;
22476;SDS011;65006;51.698;-0.292;2024-02-15T02:42:54;5.43;;;3.03;;
22476;SDS011;65006;51.698;-0.292;2024-02-15T02:47:47;4.85;;;2.67;;
22476;SDS011;65006;51.698;-0.292;2024-02-15T02:50:13;5.30;;;2.28;;
22476;SDS011;65006;51.698;-0.292;2024-02-15T02:52:40;4.53;;;2.40;;
22476;SDS011;65006;51.698;-0.292;2024-02-15T02:55:06;3.15;;;2.03;;
22476;SDS011;65006;51.698;-0.292;2024-02-15T02:57:34;4.38;;;2.42;;
22476;SDS011;65006;51.698;-0.292;2024-02-15T03:00:02;5.22;;;2.35;;
22476;SDS011;65006;51.698;-0.292;2024-02-15T03:02:32;5.90;;;2.30;;
22476;SDS011;65006;51.698;-0.292;2024-02-15T03:04:59;6.95;;;2.55;;
22476;SDS011;65006;51.698;-0.292;2024-02-15T03:07:26;5.50;;;2.47;;
22476;SDS011;65006;51.698;-0.292;2024-02-15T03:09:53;5.97;;;2.60;;
22476;SDS011;65006;51.698;-0.292;2024-02-15T03:12:19;5.13;;;2.40;;
22476;SDS011;65006;51.698;-0.292;2024-02-15T03:14:44;9.00;;;2.75;;
22476;SDS011;65006;51.698;-0.292;2024-02-15T03:17:10;4.28;;;2.55;;
22476;SDS011;65006;51.698;-0.292;2024-02-15T03:19:36;5.03;;;2.65;;
22476;SDS011;65006;51.698;-0.292;2024-02-15T03:22:02;5.10;;;2.60;;
22476;SDS011;65006;51.698;-0.292;2024-02-15T03:24:28;4.40;;;2.58;;
22476;SDS011;65006;51.698;-0.292;2024-02-15T03:26:54;5.75;;;3.38;;
22476;SDS011;65006;51.698;-0.292;2024-02-15T03:29:21;7.38;;;2.72;;
22476;SDS011;65006;51.698;-0.292;2024-02-15T03:34:14;4.68;;;2.45;;
22476;SDS011;65006;51.698;-0.292;2024-02-15T03:36:40;6.30;;;2.80;;
22476;SDS011;65006;51.698;-0.292;2024-02-15T03:39:06;4.13;;;2.50;;
22476;SDS011;65006;51.698;-0.292;2024-02-15T03:41:33;5.07;;;2.47;;
22476;SDS011;65006;51.698;-0.292;2024-02-15T03:43:59;5.10;;;2.47;;
22476;SDS011;65006;51.698;-0.292;2024-02-15T03:46:25;4.22;;;2.35;;
22476;SDS011;65006;51.698;-0.292;2024-02-15T03:51:18;5.95;;;2.80;;
22476;SDS011;65006;51.698;-0.292;2024-02-15T03:53:45;5.63;;;2.80;;
22476;SDS011;65006;51.698;-0.292;2024-02-15T03:56:12;7.43;;;3.08;;
22476;SDS011;65006;51.698;-0.292;2024-02-15T03:58:38;5.85;;;3.28;;
22476;SDS011;65006;51.698;-0.292;2024-02-15T04:01:04;7.78;;;3.10;;
22476;SDS011;65006;51.698;-0.292;2024-02-15T04:03:32;5.38;;;2.97;;
22476;SDS011;65006;51.698;-0.292;2024-02-15T04:05:59;7.28;;;3.00;;
22476;SDS011;65006;51.698;-0.292;2024-02-15T04:08:25;6.20;;;2.70;;
22476;SDS011;65006;51.698;-0.292;2024-02-15T04:10:51;6.88;;;2.85;;
22476;SDS011;65006;51.698;-0.292;2024-02-15T04:13:18;4.65;;;2.83;;
22476;SDS011;65006;51.698;-0.292;2024-02-15T04:15:44;8.07;;;3.00;;
22476;SDS011;65006;51.698;-0.292;2024-02-15T04:18:12;7.90;;;2.90;;
22476;SDS011;65006;51.698;-0.292;2024-02-15T04:20:39;6.68;;;2.80;;
22476;SDS011;65006;51.698;-0.292;2024-02-15T04:23:10;6.25;;;2.90;;
22476;SDS011;65006;51.698;-0.292;2024-02-15T04:25:37;6.55;;;2.75;;
22476;SDS011;65006;51.698;-0.292;2024-02-15T04:28:04;6.25;;;2.70;;
22476;SDS011;65006;51.698;-0.292;2024-02-15T04:30:30;5.50;;;2.60;;
22476;SDS011;65006;51.698;-0.292;2024-02-15T04:32:56;9.43;;;3.35;;
22476;SDS011;65006;51.698;-0.292;2024-02-15T04:35:22;4.22;;;2.63;;
22476;SDS011;65006;51.698;-0.292;2024-02-15T04:37:52;6.47;;;2.78;;
22476;SDS011;65006;51.698;-0.292;2024-02-15T04:40:18;5.78;;;2.63;;
22476;SDS011;65006;51.698;-0.292;2024-02-15T04:42:45;6.93;;;3.03;;
22476;SDS011;65006;51.698;-0.292;2024-02-15T04:45:12;11.00;;;3.10;;
22476;SDS011;65006;51.698;-0.292;2024-02-15T04:47:38;6.68;;;2.63;;
22476;SDS011;65006;51.698;-0.292;2024-02-15T04:50:10;6.72;;;2.63;;
22476;SDS011;65006;51.698;-0.292;2024-02-15T04:52:36;8.38;;;3.13;;
22476;SDS011;65006;51.698;-0.292;2024-02-15T04:55:02;5.68;;;2.85;;
22476;SDS011;65006;51.698;-0.292;2024-02-15T04:57:30;8.07;;;2.90;;
22476;SDS011;65006;51.698;-0.292;2024-02-15T04:59:58;6.65;;;2.83;;
22476;SDS011;65006;51.698;-0.292;2024-02-15T05:02:24;7.90;;;2.70;;
22476;SDS011;65006;51.698;-0.292;2024-02-15T05:04:51;6.15;;;2.78;;
22476;SDS011;65006;51.698;-0.292;2024-02-15T05:07:21;11.90;;;3.00;;
22476;SDS011;65006;51.698;-0.292;2024-02-15T05:09:50;11.95;;;3.22;;
22476;SDS011;65006;51.698;-0.292;2024-02-15T05:12:22;10.15;;;2.92;;
22476;SDS011;65006;51.698;-0.292;2024-02-15T05:14:52;12.57;;;3.28;;
22476;SDS011;65006;51.698;-0.292;2024-02-15T05:17:18;13.02;;;4.15;;
22476;SDS011;65006;51.698;-0.292;2024-02-15T05:19:44;8.82;;;3.72;;
22476;SDS011;65006;51.698;-0.292;2024-02-15T05:24:38;11.48;;;3.80;;
22476;SDS011;65006;51.698;-0.292;2024-02-15T05:27:04;13.52;;;4.07;;
22476;SDS011;65006;51.698;-0.292;2024-02-15T05:29:33;17.13;;;4.63;;
22476;SDS011;65006;51.698;-0.292;2024-02-15T05:32:00;16.08;;;5.18;;
22476;SDS011;65006;51.698;-0.292;2024-02-15T05:34:26;11.00;;;3.85;;
22476;SDS011;65006;51.698;-0.292;2024-02-15T05:36:54;14.30;;;4.47;;
22476;SDS011;65006;51.698;-0.292;2024-02-15T05:39:20;10.98;;;4.30;;
22476;SDS011;65006;51.698;-0.292;2024-02-15T05:44:14;11.95;;;3.67;;
22476;SDS011;65006;51.698;-0.292;2024-02-15T05:46:45;15.65;;;4.43;;
22476;SDS011;65006;51.698;-0.292;2024-02-15T05:49:12;25.52;;;5.55;;
22476;SDS011;65006;51.698;-0.292;2024-02-15T05:51:42;16.98;;;5.10;;
22476;SDS011;65006;51.698;-0.292;2024-02-15T05:54:08;15.27;;;6.03;;
22476;SDS011;65006;51.698;-0.292;2024-02-15T05:56:34;21.27;;;5.22;;
22476;SDS011;65006;51.698;-0.292;2024-02-15T05:59:00;32.10;;;6.78;;
22476;SDS011;65006;51.698;-0.292;2024-02-15T06:01:35;35.10;;;6.50;;
22476;SDS011;65006;51.698;-0.292;2024-02-15T06:04:01;33.00;;;6.60;;
22476;SDS011;65006;51.698;-0.292;2024-02-15T06:06:27;36.53;;;7.20;;
22476;SDS011;65006;51.698;-0.292;2024-02-15T06:08:53;25.67;;;6.75;;
22476;SDS011;65006;51.698;-0.292;2024-02-15T06:11:24;26.45;;;7.78;;
22476;SDS011;65006;51.698;-0.292;2024-02-15T06:13:50;33.45;;;7.20;;
22476;SDS011;65006;51.698;-0.292;2024-02-15T06:16:16;33.47;;;8.15;;
22476;SDS011;65006;51.698;-0.292;2024-02-15T06:18:43;28.67;;;8.07;;
22476;SDS011;65006;51.698;-0.292;2024-02-15T06:21:09;28.30;;;7.53;;
22476;SDS011;65006;51.698;-0.292;2024-02-15T06:23:35;33.40;;;8.05;;
22476;SDS011;65006;51.698;-0.292;2024-02-15T06:26:02;29.80;;;8.45;;
22476;SDS011;65006;51.698;-0.292;2024-02-15T06:28:28;29.70;;;7.97;;
22476;SDS011;65006;51.698;-0.292;2024-02-15T06:31:13;33.03;;;8.38;;
22476;SDS011;65006;51.698;-0.292;2024-02-15T06:33:58;28.50;;;8.27;;
22476;SDS011;65006;51.698;-0.292;2024-02-15T06:36:45;24.50;;;7.15;;
22476;SDS011;65006;51.698;-0.292;2024-02-15T06:39:31;22.88;;;7.68;;
22476;SDS011;65006;51.698;-0.292;2024-02-15T06:42:05;29.67;;;7.88;;
22476;SDS011;65006;51.698;-0.292;2024-02-15T06:44:32;27.42;;;7.63;;
22476;SDS011;65006;51.698;-0.292;2024-02-15T06:46:58;26.73;;;8.35;;
22476;SDS011;65006;51.698;-0.292;2024-02-15T06:49:24;42.95;;;8.10;;
22476;SDS011;65006;51.698;-0.292;2024-02-15T06:51:51;31.42;;;8.80;;
22476;SDS011;65006;51.698;-0.292;2024-02-15T06:54:17;31.77;;;7.70;;
22476;SDS011;65006;51.698;-0.292;2024-02-15T06:56:46;28.85;;;7.75;;
22476;SDS011;65006;51.698;-0.292;2024-02-15T06:59:12;22.85;;;7.47;;
22476;SDS011;65006;51.698;-0.292;2024-02-15T07:04:05;27.13;;;7.88;;
22476;SDS011;65006;51.698;-0.292;2024-02-15T07:06:31;25.13;;;7.20;;
22476;SDS011;65006;51.698;-0.292;2024-02-15T07:08:57;28.88;;;8.27;;
22476;SDS011;65006;51.698;-0.292;2024-02-15T07:11:23;24.38;;;7.53;;
22476;SDS011;65006;51.698;-0.292;2024-02-15T07:13:49;21.30;;;6.50;;
22476;SDS011;65006;51.698;-0.292;2024-02-15T07:16:18;21.70;;;6.65;;
22476;SDS011;65006;51.698;-0.292;2024-02-15T07:18:44;18.20;;;5.88;;
22476;SDS011;65006;51.698;-0.292;2024-02-15T07:21:11;18.95;;;6.10;;
22476;SDS011;65006;51.698;-0.292;2024-02-15T07:23:39;17.70;;;5.90;;
22476;SDS011;65006;51.698;-0.292;2024-02-15T07:26:06;20.02;;;5.57;;
22476;SDS011;65006;51.698;-0.292;2024-02-15T07:28:33;10.65;;;5.10;;
22476;SDS011;65006;51.698;-0.292;2024-02-15T07:30:59;27.23;;;6.43;;
22476;SDS011;65006;51.698;-0.292;2024-02-15T07:33:27;13.85;;;4.95;;
22476;SDS011;65006;51.698;-0.292;2024-02-15T07:35:53;13.68;;;5.38;;
22476;SDS011;65006;51.698;-0.292;2024-02-15T07:38:21;18.27;;;5.43;;
22476;SDS011;65006;51.698;-0.292;2024-02-15T07:40:48;19.55;;;4.65;;
22476;SDS011;65006;51.698;-0.292;2024-02-15T07:43:14;12.95;;;4.70;;
22476;SDS011;65006;51.698;-0.292;2024-02-15T07:45:40;14.52;;;4.85;;
22476;SDS011;65006;51.698;-0.292;2024-02-15T07:48:06;23.33;;;5.20;;
22476;SDS011;65006;51.698;-0.292;2024-02-15T07:50:32;12.38;;;4.03;;
22476;SDS011;65006;51.698;-0.292;2024-02-15T07:52:58;14.27;;;4.03;;
22476;SDS011;65006;51.698;-0.292;2024-02-15T07:55:24;16.83;;;4.47;;
22476;SDS011;65006;51.698;-0.292;2024-02-15T07:57:51;12.52;;;4.35;;
22476;SDS011;65006;51.698;-0.292;2024-02-15T08:00:18;13.90;;;4.03;;
22476;SDS011;65006;51.698;-0.292;2024-02-15T08:02:44;20.08;;;4.13;;
22476;SDS011;65006;51.698;-0.292;2024-02-15T08:05:11;10.45;;;3.85;;
22476;SDS011;65006;51.698;-0.292;2024-02-15T08:07:40;16.70;;;3.88;;
22476;SDS011;65006;51.698;-0.292;2024-02-15T08:10:06;14.20;;;4.68;;
22476;SDS011;65006;51.698;-0.292;2024-02-15T08:12:37;9.32;;;3.30;;
22476;SDS011;65006;51.698;-0.292;2024-02-15T08:15:03;11.63;;;3.50;;
22476;SDS011;65006;51.698;-0.292;2024-02-15T08:17:30;11.80;;;3.80;;
22476;SDS011;65006;51.698;-0.292;2024-02-15T08:19:56;11.07;;;3.20;;
22476;SDS011;65006;51.698;-0.292;2024-02-15T08:22:21;7.68;;;3.25;;
22476;SDS011;65006;51.698;-0.292;2024-02-15T08:24:51;10.02;;;3.70;;
22476;SDS011;65006;51.698;-0.292;2024-02-15T08:27:17;15.45;;;3.53;;
22476;SDS011;65006;51.698;-0.292;2024-02-15T08:29:43;15.70;;;2.88;;
22476;SDS011;65006;51.698;-0.292;2024-02-15T08:32:09;9.27;;;3.50;;
22476;SDS011;65006;51.698;-0.292;2024-02-15T08:34:36;14.45;;;3.92;;
22476;SDS011;65006;51.698;-0.292;2024-02-15T08:37:03;7.90;;;3.10;;
22476;SDS011;65006;51.698;-0.292;2024-02-15T08:39:29;8.32;;;2.80;;
22476;SDS011;65006;51.698;-0.292;2024-02-15T08:41:56;13.15;;;3.35;;
22476;SDS011;65006;51.698;-0.292;2024-02-15T08:44:23;12.18;;;2.83;;
22476;SDS011;65006;51.698;-0.292;2024-02-15T08:49:16;11.00;;;2.50;;
22476;SDS011;65006;51.698;-0.292;2024-02-15T08:51:42;9.07;;;2.55;;
22476;SDS011;65006;51.698;-0.292;2024-02-15T08:54:08;10.60;;;3.25;;
22476;SDS011;65006;51.698;-0.292;2024-02-15T08:56:37;6.60;;;2.00;;
22476;SDS011;65006;51.698;-0.292;2024-02-15T08:59:03;3.42;;;1.65;;
22476;SDS011;65006;51.698;-0.292;2024-02-15T09:01:29;5.20;;;1.67;;
22476;SDS011;65006;51.698;-0.292;2024-02-15T09:03:55;11.25;;;2.13;;
22476;SDS011;65006;51.698;-0.292;2024-02-15T09:06:22;6.65;;;2.17;;
22476;SDS011;65006;51.698;-0.292;2024-02-15T09:08:48;4.10;;;1.75;;
22476;SDS011;65006;51.698;-0.292;2024-02-15T09:11:14;6.68;;;1.70;;
22476;SDS011;65006;51.698;-0.292;2024-02-15T09:13:40;3.58;;;1.85;;
22476;SDS011;65006;51.698;-0.292;2024-02-15T09:16:06;3.20;;;1.55;;
22476;SDS011;65006;51.698;-0.292;2024-02-15T09:18:32;4.68;;;1.58;;
22476;SDS011;65006;51.698;-0.292;2024-02-15T09:20:58;7.32;;;1.95;;
22476;SDS011;65006;51.698;-0.292;2024-02-15T09:23:24;5.47;;;2.00;;
22476;SDS011;65006;51.698;-0.292;2024-02-15T09:25:50;9.68;;;2.72;;
22476;SDS011;65006;51.698;-0.292;2024-02-15T09:28:17;6.15;;;1.80;;
22476;SDS011;65006;51.698;-0.292;2024-02-15T09:30:47;4.25;;;1.77;;
22476;SDS011;65006;51.698;-0.292;2024-02-15T09:35:39;5.32;;;2.13;;
22476;SDS011;65006;51.698;-0.292;2024-02-15T09:38:05;5.88;;;1.80;;
22476;SDS011;65006;51.698;-0.292;2024-02-15T09:40:31;3.63;;;1.60;;
22476;SDS011;65006;51.698;-0.292;2024-02-15T09:42:59;5.40;;;1.30;;
22476;SDS011;65006;51.698;-0.292;2024-02-15T09:45:25;3.05;;;1.60;;
22476;SDS011;65006;51.698;-0.292;2024-02-15T09:47:51;7.68;;;1.48;;
22476;SDS011;65006;51.698;-0.292;2024-02-15T09:50:21;3.83;;;1.30;;
22476;SDS011;65006;51.698;-0.292;2024-02-15T09:52:50;4.18;;;1.40;;
22476;SDS011;65006;51.698;-0.292;2024-02-15T09:55:16;4.57;;;1.50;;
22476;SDS011;65006;51.698;-0.292;2024-02-15T09:57:43;3.70;;;1.40;;
22476;SDS011;65006;51.698;-0.292;2024-02-15T10:00:10;3.90;;;1.40;;
22476;SDS011;65006;51.698;-0.292;2024-02-15T10:02:40;7.45;;;1.90;;
22476;SDS011;65006;51.698;-0.292;2024-02-15T10:05:07;3.58;;;1.38;;
22476;SDS011;65006;51.698;-0.292;2024-02-15T10:07:37;4.57;;;1.30;;
22476;SDS011;65006;51.698;-0.292;2024-02-15T10:10:16;3.97;;;1.50;;
22476;SDS011;65006;51.698;-0.292;2024-02-15T10:12:42;5.18;;;1.63;;
22476;SDS011;65006;51.698;-0.292;2024-02-15T10:15:08;3.17;;;1.52;;
22476;SDS011;65006;51.698;-0.292;2024-02-15T10:17:35;7.68;;;1.65;;
22476;SDS011;65006;51.698;-0.292;2024-02-15T10:22:27;7.25;;;1.30;;
22476;SDS011;65006;51.698;-0.292;2024-02-15T10:25:03;12.63;;;1.52;;
22476;SDS011;65006;51.698;-0.292;2024-02-15T10:27:36;3.22;;;1.33;;
22476;SDS011;65006;51.698;-0.292;2024-02-15T10:30:16;2.78;;;1.15;;
22476;SDS011;65006;51.698;-0.292;2024-02-15T10:32:44;3.30;;;1.30;;
22476;SDS011;65006;51.698;-0.292;2024-02-15T10:35:10;2.10;;;1.05;;
22476;SDS011;65006;51.698;-0.292;2024-02-15T10:37:44;2.95;;;1.00;;
22476;SDS011;65006;51.698;-0.292;2024-02-15T10:40:10;2.85;;;1.15;;
22476;SDS011;65006;51.698;-0.292;2024-02-15T10:42:38;4.47;;;1.23;;
22476;SDS011;65006;51.698;-0.292;2024-02-15T10:45:07;1.42;;;1.00;;
22476;SDS011;65006;51.698;-0.292;2024-02-15T10:47:36;2.40;;;1.30;;
22476;SDS011;65006;51.698;-0.292;2024-02-15T10:50:03;2.58;;;1.27;;
22476;SDS011;65006;51.698;-0.292;2024-02-15T10:52:31;1.73;;;1.10;;
22476;SDS011;65006;51.698;-0.292;2024-02-15T10:57:23;3.25;;;1.48;;
22476;SDS011;65006;51.698;-0.292;2024-02-15T10:59:58;4.32;;;1.33;;
22476;SDS011;65006;51.698;-0.292;2024-02-15T11:02:47;5.70;;;1.27;;
22476;SDS011;65006;51.698;-0.292;2024-02-15T11:05:16;4.50;;;1.15;;
22476;SDS011;65006;51.698;-0.292;2024-02-15T11:07:46;6.20;;;1.10;;
22476;SDS011;65006;51.698;-0.292;2024-02-15T11:10:12;2.35;;;1.02;;
22476;SDS011;65006;51.698;-0.292;2024-02-15T11:12:41;2.28;;;0.80;;
22476;SDS011;65006;51.698;-0.292;2024-02-15T11:15:09;5.75;;;1.00;;
22476;SDS011;65006;51.698;-0.292;2024-02-15T11:20:05;4.10;;;0.88;;
22476;SDS011;65006;51.698;-0.292;2024-02-15T11:22:34;2.33;;;0.70;;
22476;SDS011;65006;51.698;-0.292;2024-02-15T11:25:07;2.85;;;0.70;;
22476;SDS011;65006;51.698;-0.292;2024-02-15T11:27:37;2.28;;;0.90;;
22476;SDS011;65006;51.698;-0.292;2024-02-15T11:30:07;5.95;;;1.15;;
22476;SDS011;65006;51.698;-0.292;2024-02-15T11:32:44;4.97;;;0.95;;
22476;SDS011;65006;51.698;-0.292;2024-02-15T11:35:22;2.35;;;0.95;;
22476;SDS011;65006;51.698;-0.292;2024-02-15T11:42:42;9.27;;;1.35;;
22476;SDS011;65006;51.698;-0.292;2024-02-15T11:45:08;15.15;;;1.65;;
22476;SDS011;65006;51.698;-0.292;2024-02-15T11:47:38;14.80;;;2.03;;
22476;SDS011;65006;51.698;-0.292;2024-02-15T11:50:14;2.70;;;1.30;;
22476;SDS011;65006;51.698;-0.292;2024-02-15T11:53:22;2.92;;;1.00;;
22476;SDS011;65006;51.698;-0.292;2024-02-15T11:55:34;6.32;;;1.23;;
22476;SDS011;65006;51.698;-0.292;2024-02-15T11:58:01;3.70;;;1.30;;
22476;SDS011;65006;51.698;-0.292;2024-02-15T12:00:33;8.32;;;1.48;;
22476;SDS011;65006;51.698;-0.292;2024-02-15T12:03:18;24.20;;;2.05;;
22476;SDS011;65006;51.698;-0.292;2024-02-15T12:06:03;11.65;;;1.85;;
22476;SDS011;65006;51.698;-0.292;2024-02-15T12:08:49;3.78;;;1.48;;
22476;SDS011;65006;51.698;-0.292;2024-02-15T12:11:34;2.25;;;0.95;;
22476;SDS011;65006;51.698;-0.292;2024-02-15T12:14:18;3.03;;;1.52;;
22476;SDS011;65006;51.698;-0.292;2024-02-15T12:17:04;5.72;;;1.20;;
22476;SDS011;65006;51.698;-0.292;2024-02-15T12:19:49;6.93;;;1.08;;
22476;SDS011;65006;51.698;-0.292;2024-02-15T12:22:17;3.05;;;1.40;;
22476;SDS011;65006;51.698;-0.292;2024-02-15T12:24:45;6.20;;;1.23;;
22476;SDS011;65006;51.698;-0.292;2024-02-15T12:27:12;7.35;;;2.08;;
22476;SDS011;65006;51.698;-0.292;2024-02-15T12:29:38;6.50;;;1.20;;
22476;SDS011;65006;51.698;-0.292;2024-02-15T12:32:05;3.85;;;1.00;;
22476;SDS011;65006;51.698;-0.292;2024-02-15T12:34:31;5.30;;;1.33;;
22476;SDS011;65006;51.698;-0.292;2024-02-15T12:37:06;8.00;;;1.13;;
22476;SDS011;65006;51.698;-0.292;2024-02-15T12:39:33;7.22;;;1.48;;
22476;SDS011;65006;51.698;-0.292;2024-02-15T12:42:00;4.72;;;1.52;;
22476;SDS011;65006;51.698;-0.292;2024-02-15T12:46:57;5.97;;;1.23;;
22476;SDS011;65006;51.698;-0.292;2024-02-15T12:51:51;6.88;;;1.45;;
22476;SDS011;65006;51.698;-0.292;2024-02-15T12:54:20;2.25;;;0.82;;
22476;SDS011;65006;51.698;-0.292;2024-02-15T12:56:47;2.78;;;1.35;;
22476;SDS011;65006;51.698;-0.292;2024-02-15T12:59:19;4.15;;;1.23;;
22476;SDS011;65006;51.698;-0.292;2024-02-15T13:01:45;6.88;;;1.02;;
22476;SDS011;65006;51.698;-0.292;2024-02-15T13:04:24;4.55;;;1.10;;
22476;SDS011;65006;51.698;-0.292;2024-02-15T13:06:50;1.83;;;0.85;;
22476;SDS011;65006;51.698;-0.292;2024-02-15T13:09:16;3.88;;;1.00;;
22476;SDS011;65006;51.698;-0.292;2024-02-15T13:11:43;4.03;;;1.13;;
22476;SDS011;65006;51.698;-0.292;2024-02-15T13:14:12;5.88;;;1.05;;
22476;SDS011;65006;51.698;-0.292;2024-02-15T13:16:38;4.28;;;2.10;;
22476;SDS011;65006;51.698;-0.292;2024-02-15T13:19:04;3.10;;;1.58;;
22476;SDS011;65006;51.698;-0.292;2024-02-15T13:21:32;3.13;;;1.00;;
22476;SDS011;65006;51.698;-0.292;2024-02-15T13:23:59;1.58;;;0.82;;
22476;SDS011;65006;51.698;-0.292;2024-02-15T13:26:29;2.33;;;0.90;;
22476;SDS011;65006;51.698;-0.292;2024-02-15T13:28:55;3.42;;;1.05;;
22476;SDS011;65006;51.698;-0.292;2024-02-15T13:31:21;4.68;;;1.40;;
22476;SDS011;65006;51.698;-0.292;2024-02-15T13:33:48;1.65;;;1.00;;
22476;SDS011;65006;51.698;-0.292;2024-02-15T13:36:14;5.43;;;1.00;;
22476;SDS011;65006;51.698;-0.292;2024-02-15T13:38:40;5.63;;;1.45;;
22476;SDS011;65006;51.698;-0.292;2024-02-15T13:43:33;3.60;;;0.90;;
22476;SDS011;65006;51.698;-0.292;2024-02-15T13:45:59;4.60;;;0.90;;
22476;SDS011;65006;51.698;-0.292;2024-02-15T13:48:29;1.10;;;0.93;;
22476;SDS011;65006;51.698;-0.292;2024-02-15T13:50:56;1.70;;;0.90;;
22476;SDS011;65006;51.698;-0.292;2024-02-15T13:53:23;6.80;;;1.23;;
22476;SDS011;65006;51.698;-0.292;2024-02-15T13:55:50;1.48;;;0.80;;
22476;SDS011;65006;51.698;-0.292;2024-02-15T13:58:17;7.30;;;1.17;;
22476;SDS011;65006;51.698;-0.292;2024-02-15T14:00:43;2.25;;;1.02;;
22476;SDS011;65006;51.698;-0.292;2024-02-15T14:03:10;1.63;;;1.00;;
22476;SDS011;65006;51.698;-0.292;2024-02-15T14:05:36;1.88;;;0.60;;
22476;SDS011;65006;51.698;-0.292;2024-02-15T14:08:04;5.00;;;0.98;;
22476;SDS011;65006;51.698;-0.292;2024-02-15T14:10:32;1.65;;;0.80;;
22476;SDS011;65006;51.698;-0.292;2024-02-15T14:13:00;2.67;;;0.80;;
22476;SDS011;65006;51.698;-0.292;2024-02-15T14:15:36;8.50;;;0.90;;
22476;SDS011;65006;51.698;-0.292;2024-02-15T14:20:29;2.95;;;0.80;;
22476;SDS011;65006;51.698;-0.292;2024-02-15T14:22:55;3.03;;;1.20;;
22476;SDS011;65006;51.698;-0.292;2024-02-15T14:25:24;1.48;;;0.68;;
22476;SDS011;65006;51.698;-0.292;2024-02-15T14:27:51;2.38;;;0.82;;
22476;SDS011;65006;51.698;-0.292;2024-02-15T14:30:18;2.72;;;0.70;;
22476;SDS011;65006;51.698;-0.292;2024-02-15T14:33:03;2.92;;;0.80;;
22476;SDS011;65006;51.698;-0.292;2024-02-15T14:35:32;1.60;;;0.77;;
22476;SDS011;65006;51.698;-0.292;2024-02-15T14:38:02;1.55;;;0.55;;
22476;SDS011;65006;51.698;-0.292;2024-02-15T14:40:32;3.92;;;0.80;;
22476;SDS011;65006;51.698;-0.292;2024-02-15T14:42:58;4.55;;;0.60;;
22476;SDS011;65006;51.698;-0.292;2024-02-15T14:47:51;2.88;;;0.80;;
22476;SDS011;65006;51.698;-0.292;2024-02-15T14:50:17;2.50;;;0.50;;
22476;SDS011;65006;51.698;-0.292;2024-02-15T14:52:45;1.63;;;0.55;;
22476;SDS011;65006;51.698;-0.292;2024-02-15T14:55:13;1.77;;;0.75;;
22476;SDS011;65006;51.698;-0.292;2024-02-15T14:57:39;2.80;;;0.82;;
22476;SDS011;65006;51.698;-0.292;2024-02-15T15:00:06;1.23;;;0.73;;
22476;SDS011;65006;51.698;-0.292;2024-02-15T15:02:37;4.45;;;1.23;;
22476;SDS011;65006;51.698;-0.292;2024-02-15T15:05:04;1.25;;;0.63;;
22476;SDS011;65006;51.698;-0.292;2024-02-15T15:07:49;1.30;;;0.60;;
22476;SDS011;65006;51.698;-0.292;2024-02-15T15:10:33;2.10;;;0.60;;
22476;SDS011;65006;51.698;-0.292;2024-02-15T15:13:18;1.73;;;0.77;;
22476;SDS011;65006;51.698;-0.292;2024-02-15T15:15:44;1.63;;;0.77;;
22476;SDS011;65006;51.698;-0.292;2024-02-15T15:18:11;0.90;;;0.70;;
22476;SDS011;65006;51.698;-0.292;2024-02-15T15:20:38;1.85;;;0.77;;
22476;SDS011;65006;51.698;-0.292;2024-02-15T15:23:04;1.38;;;0.82;;
22476;SDS011;65006;51.698;-0.292;2024-02-15T15:25:32;1.95;;;0.90;;